sensor_id;sensor_type;location;lat;lon;timestamp;pressure;altitude;pressure_sealevel;temperature
49154;BMP280;49455;52.252;9.124;2023-05-14T00:03:14;99871.41;;;13.59
49154;BMP280;49455;52.252;9.124;2023-05-14T00:08:15;99865.28;;;13.54
49154;BMP280;49455;52.252;9.124;2023-05-14T00:13:15;99860.91;;;13.53
49154;BMP280;49455;52.252;9.124;2023-05-14T00:18:16;99858.38;;;13.55
49154;BMP280;49455;52.252;9.124;2023-05-14T00:23:16;99848.84;;;13.55
49154;BMP280;49455;52.252;9.124;2023-05-14T00:28:17;99844.63;;;13.60
49154;BMP280;49455;52.252;9.124;2023-05-14T00:33:17;99848.13;;;13.63
49154;BMP280;49455;52.252;9.124;2023-05-14T00:38:17;99843.66;;;13.57
49154;BMP280;49455;52.252;9.124;2023-05-14T00:43:19;99844.38;;;13.47
49154;BMP280;49455;52.252;9.124;2023-05-14T00:48:20;99844.13;;;13.35
49154;BMP280;49455;52.252;9.124;2023-05-14T00:53:21;99843.97;;;13.26
49154;BMP280;49455;52.252;9.124;2023-05-14T00:58:21;99846.91;;;13.00
49154;BMP280;49455;52.252;9.124;2023-05-14T01:03:22;99843.72;;;12.73
49154;BMP280;49455;52.252;9.124;2023-05-14T01:13:32;99834.50;;;12.10
49154;BMP280;49455;52.252;9.124;2023-05-14T01:18:39;99837.78;;;12.03
49154;BMP280;49455;52.252;9.124;2023-05-14T01:23:40;99845.09;;;11.85
49154;BMP280;49455;52.252;9.124;2023-05-14T01:28:42;99844.97;;;11.79
49154;BMP280;49455;52.252;9.124;2023-05-14T01:33:43;99840.19;;;11.96
49154;BMP280;49455;52.252;9.124;2023-05-14T01:38:45;99839.09;;;12.21
49154;BMP280;49455;52.252;9.124;2023-05-14T01:43:47;99828.31;;;12.41
49154;BMP280;49455;52.252;9.124;2023-05-14T01:48:48;99833.06;;;12.60
49154;BMP280;49455;52.252;9.124;2023-05-14T01:53:48;99834.88;;;12.64
49154;BMP280;49455;52.252;9.124;2023-05-14T01:58:49;99829.03;;;12.74
49154;BMP280;49455;52.252;9.124;2023-05-14T02:03:49;99838.81;;;12.47
49154;BMP280;49455;52.252;9.124;2023-05-14T02:08:50;99829.47;;;12.16
49154;BMP280;49455;52.252;9.124;2023-05-14T02:13:50;99824.78;;;12.02
49154;BMP280;49455;52.252;9.124;2023-05-14T02:18:51;99833.09;;;11.87
49154;BMP280;49455;52.252;9.124;2023-05-14T02:23:51;99829.69;;;11.90
49154;BMP280;49455;52.252;9.124;2023-05-14T02:28:52;99813.63;;;12.04
49154;BMP280;49455;52.252;9.124;2023-05-14T02:33:52;99816.34;;;12.10
49154;BMP280;49455;52.252;9.124;2023-05-14T02:38:53;99809.00;;;12.28
49154;BMP280;49455;52.252;9.124;2023-05-14T02:43:53;99816.03;;;12.33
49154;BMP280;49455;52.252;9.124;2023-05-14T02:48:54;99817.84;;;12.36
49154;BMP280;49455;52.252;9.124;2023-05-14T02:53:55;99808.41;;;12.39
49154;BMP280;49455;52.252;9.124;2023-05-14T02:58:55;99812.97;;;12.50
49154;BMP280;49455;52.252;9.124;2023-05-14T03:03:56;99811.34;;;12.55
49154;BMP280;49455;52.252;9.124;2023-05-14T03:08:56;99806.16;;;12.55
49154;BMP280;49455;52.252;9.124;2023-05-14T03:13:57;99801.97;;;12.60
49154;BMP280;49455;52.252;9.124;2023-05-14T03:18:57;99809.78;;;12.63
49154;BMP280;49455;52.252;9.124;2023-05-14T03:23:58;99799.31;;;12.57
49154;BMP280;49455;52.252;9.124;2023-05-14T03:28:58;99805.28;;;12.55
49154;BMP280;49455;52.252;9.124;2023-05-14T03:33:58;99801.09;;;12.61
49154;BMP280;49455;52.252;9.124;2023-05-14T03:38:59;99805.41;;;12.61
49154;BMP280;49455;52.252;9.124;2023-05-14T03:43:59;99794.19;;;12.62
49154;BMP280;49455;52.252;9.124;2023-05-14T03:49:00;99802.03;;;12.63
49154;BMP280;49455;52.252;9.124;2023-05-14T03:54:02;99801.91;;;12.59
49154;BMP280;49455;52.252;9.124;2023-05-14T03:59:02;99799.31;;;12.57
49154;BMP280;49455;52.252;9.124;2023-05-14T04:04:03;99799.31;;;12.57
49154;BMP280;49455;52.252;9.124;2023-05-14T04:09:03;99798.44;;;12.58
49154;BMP280;49455;52.252;9.124;2023-05-14T04:14:04;99803.75;;;12.63
49154;BMP280;49455;52.252;9.124;2023-05-14T04:19:05;99803.91;;;12.71
49154;BMP280;49455;52.252;9.124;2023-05-14T04:24:05;99802.34;;;12.78
49154;BMP280;49455;52.252;9.124;2023-05-14T04:29:06;99797.44;;;12.91
49154;BMP280;49455;52.252;9.124;2023-05-14T04:34:06;99800.13;;;12.96
49154;BMP280;49455;52.252;9.124;2023-05-14T04:39:07;99794.19;;;13.02
49154;BMP280;49455;52.252;9.124;2023-05-14T04:44:07;99800.28;;;13.04
49154;BMP280;49455;52.252;9.124;2023-05-14T04:49:07;99790.94;;;13.12
49154;BMP280;49455;52.252;9.124;2023-05-14T04:54:08;99789.47;;;13.26
49154;BMP280;49455;52.252;9.124;2023-05-14T04:59:08;99800.09;;;13.39
49154;BMP280;49455;52.252;9.124;2023-05-14T05:04:09;99789.09;;;13.54
49154;BMP280;49455;52.252;9.124;2023-05-14T05:09:09;99791.00;;;13.63
49154;BMP280;49455;52.252;9.124;2023-05-14T05:14:10;99792.09;;;13.77
49154;BMP280;49455;52.252;9.124;2023-05-14T05:19:10;99794.03;;;13.90
49154;BMP280;49455;52.252;9.124;2023-05-14T05:24:10;99794.22;;;13.97
49154;BMP280;49455;52.252;9.124;2023-05-14T05:29:11;99798.63;;;14.03
49154;BMP280;49455;52.252;9.124;2023-05-14T05:34:11;99802.31;;;14.18
49154;BMP280;49455;52.252;9.124;2023-05-14T05:39:12;99800.88;;;14.39
49154;BMP280;49455;52.252;9.124;2023-05-14T05:44:12;99798.44;;;14.51
49154;BMP280;49455;52.252;9.124;2023-05-14T05:49:12;99805.09;;;14.30
49154;BMP280;49455;52.252;9.124;2023-05-14T05:54:13;99810.25;;;14.28
49154;BMP280;49455;52.252;9.124;2023-05-14T05:59:13;99806.94;;;14.40
49154;BMP280;49455;52.252;9.124;2023-05-14T06:04:14;99811.63;;;14.63
49154;BMP280;49455;52.252;9.124;2023-05-14T06:09:14;99817.91;;;14.81
49154;BMP280;49455;52.252;9.124;2023-05-14T06:14:14;99809.56;;;15.07
49154;BMP280;49455;52.252;9.124;2023-05-14T06:19:15;99805.44;;;15.24
49154;BMP280;49455;52.252;9.124;2023-05-14T06:24:15;99813.50;;;15.47
49154;BMP280;49455;52.252;9.124;2023-05-14T06:29:16;99823.97;;;15.53
49154;BMP280;49455;52.252;9.124;2023-05-14T06:34:16;99812.63;;;15.48
49154;BMP280;49455;52.252;9.124;2023-05-14T06:39:16;99820.66;;;15.69
49154;BMP280;49455;52.252;9.124;2023-05-14T06:44:18;99814.66;;;15.80
49154;BMP280;49455;52.252;9.124;2023-05-14T06:49:18;99813.94;;;15.98
49154;BMP280;49455;52.252;9.124;2023-05-14T06:54:18;99819.97;;;15.92
49154;BMP280;49455;52.252;9.124;2023-05-14T06:59:19;99809.63;;;16.02
49154;BMP280;49455;52.252;9.124;2023-05-14T07:04:19;99809.78;;;16.14
49154;BMP280;49455;52.252;9.124;2023-05-14T07:09:20;99808.16;;;16.31
49154;BMP280;49455;52.252;9.124;2023-05-14T07:14:20;99804.75;;;16.44
49154;BMP280;49455;52.252;9.124;2023-05-14T07:19:20;99801.25;;;16.46
49154;BMP280;49455;52.252;9.124;2023-05-14T07:24:21;99799.72;;;16.76
49154;BMP280;49455;52.252;9.124;2023-05-14T07:29:22;99800.56;;;16.78
49154;BMP280;49455;52.252;9.124;2023-05-14T07:34:22;99794.63;;;17.10
49154;BMP280;49455;52.252;9.124;2023-05-14T07:39:23;99785.16;;;17.48
49154;BMP280;49455;52.252;9.124;2023-05-14T07:44:23;99778.16;;;17.29
49154;BMP280;49455;52.252;9.124;2023-05-14T07:49:23;99779.94;;;17.52
49154;BMP280;49455;52.252;9.124;2023-05-14T07:54:24;99772.06;;;17.49
49154;BMP280;49455;52.252;9.124;2023-05-14T07:59:24;99773.81;;;17.74
49154;BMP280;49455;52.252;9.124;2023-05-14T08:04:25;99765.09;;;17.60
49154;BMP280;49455;52.252;9.124;2023-05-14T08:09:25;99758.13;;;18.00
49154;BMP280;49455;52.252;9.124;2023-05-14T08:14:26;99753.75;;;18.32
49154;BMP280;49455;52.252;9.124;2023-05-14T08:19:26;99751.13;;;18.35
49154;BMP280;49455;52.252;9.124;2023-05-14T08:24:27;99756.38;;;18.14
49154;BMP280;49455;52.252;9.124;2023-05-14T08:29:27;99757.16;;;18.54
49154;BMP280;49455;52.252;9.124;2023-05-14T08:34:28;99753.75;;;18.36
49154;BMP280;49455;52.252;9.124;2023-05-14T08:39:28;99752.88;;;18.31
49154;BMP280;49455;52.252;9.124;2023-05-14T08:44:37;99752.81;;;18.50
49154;BMP280;49455;52.252;9.124;2023-05-14T08:49:42;99743.94;;;18.93
49154;BMP280;49455;52.252;9.124;2023-05-14T08:54:45;99737.78;;;19.04
49154;BMP280;49455;52.252;9.124;2023-05-14T08:59:45;99749.25;;;18.71
49154;BMP280;49455;52.252;9.124;2023-05-14T09:04:46;99740.59;;;18.55
49154;BMP280;49455;52.252;9.124;2023-05-14T09:09:47;99750.06;;;18.96
49154;BMP280;49455;52.252;9.124;2023-05-14T09:14:48;99727.13;;;19.32
49154;BMP280;49455;52.252;9.124;2023-05-14T09:19:49;99725.41;;;19.28
49154;BMP280;49455;52.252;9.124;2023-05-14T09:25:10;99725.44;;;19.21
49154;BMP280;49455;52.252;9.124;2023-05-14T09:30:12;99726.91;;;19.57
49154;BMP280;49455;52.252;9.124;2023-05-14T09:35:17;99721.66;;;19.62
49154;BMP280;49455;52.252;9.124;2023-05-14T09:40:19;99708.41;;;19.81
49154;BMP280;49455;52.252;9.124;2023-05-14T09:45:20;99707.53;;;19.79
49154;BMP280;49455;52.252;9.124;2023-05-14T09:50:20;99711.66;;;20.05
49154;BMP280;49455;52.252;9.124;2023-05-14T09:55:21;99708.09;;;20.09
49154;BMP280;49455;52.252;9.124;2023-05-14T10:00:22;99700.56;;;20.58
49154;BMP280;49455;52.252;9.124;2023-05-14T10:05:23;99694.09;;;20.86
49154;BMP280;49455;52.252;9.124;2023-05-14T10:10:31;99689.50;;;20.99
49154;BMP280;49455;52.252;9.124;2023-05-14T10:15:39;99680.97;;;20.86
49154;BMP280;49455;52.252;9.124;2023-05-14T10:20:39;99674.00;;;20.82
49154;BMP280;49455;52.252;9.124;2023-05-14T10:25:41;99680.25;;;21.34
49154;BMP280;49455;52.252;9.124;2023-05-14T10:30:44;99679.16;;;20.88
49154;BMP280;49455;52.252;9.124;2023-05-14T10:35:55;99677.38;;;20.20
49154;BMP280;49455;52.252;9.124;2023-05-14T10:41:08;99677.81;;;19.74
49154;BMP280;49455;52.252;9.124;2023-05-14T10:46:10;99666.28;;;19.97
49154;BMP280;49455;52.252;9.124;2023-05-14T10:51:11;99662.50;;;20.22
49154;BMP280;49455;52.252;9.124;2023-05-14T10:56:13;99660.25;;;19.88
49154;BMP280;49455;52.252;9.124;2023-05-14T11:01:14;99662.16;;;19.69
49154;BMP280;49455;52.252;9.124;2023-05-14T11:06:14;99653.19;;;19.93
49154;BMP280;49455;52.252;9.124;2023-05-14T11:11:16;99650.75;;;19.70
49154;BMP280;49455;52.252;9.124;2023-05-14T11:16:17;99654.25;;;19.72
49154;BMP280;49455;52.252;9.124;2023-05-14T11:21:17;99635.31;;;19.41
49154;BMP280;49455;52.252;9.124;2023-05-14T11:26:18;99639.34;;;19.80
49154;BMP280;49455;52.252;9.124;2023-05-14T11:31:18;99638.47;;;19.83
49154;BMP280;49455;52.252;9.124;2023-05-14T11:36:19;99632.44;;;19.68
49154;BMP280;49455;52.252;9.124;2023-05-14T11:41:19;99627.38;;;19.53
49154;BMP280;49455;52.252;9.124;2023-05-14T11:46:19;99620.88;;;19.89
49154;BMP280;49455;52.252;9.124;2023-05-14T11:51:20;99617.88;;;20.20
49154;BMP280;49455;52.252;9.124;2023-05-14T11:56:20;99616.38;;;20.01
49154;BMP280;49455;52.252;9.124;2023-05-14T12:01:21;99607.81;;;19.88
49154;BMP280;49455;52.252;9.124;2023-05-14T12:06:29;99602.56;;;19.86
49154;BMP280;49455;52.252;9.124;2023-05-14T12:11:30;99600.13;;;19.66
49154;BMP280;49455;52.252;9.124;2023-05-14T12:16:30;99594.59;;;19.97
49154;BMP280;49455;52.252;9.124;2023-05-14T12:21:33;99581.44;;;20.63
49154;BMP280;49455;52.252;9.124;2023-05-14T12:26:33;99579.13;;;21.02
49154;BMP280;49455;52.252;9.124;2023-05-14T12:31:34;99557.41;;;20.90
49154;BMP280;49455;52.252;9.124;2023-05-14T12:36:35;99569.19;;;20.00
49154;BMP280;49455;52.252;9.124;2023-05-14T12:41:36;99575.31;;;19.98
49154;BMP280;49455;52.252;9.124;2023-05-14T12:46:36;99559.47;;;20.06
49154;BMP280;49455;52.252;9.124;2023-05-14T12:51:36;99560.56;;;19.89
49154;BMP280;49455;52.252;9.124;2023-05-14T12:56:37;99548.88;;;20.14
49154;BMP280;49455;52.252;9.124;2023-05-14T13:01:39;99550.03;;;20.59
49154;BMP280;49455;52.252;9.124;2023-05-14T13:06:39;99534.69;;;20.88
49154;BMP280;49455;52.252;9.124;2023-05-14T13:11:40;99516.53;;;21.71
49154;BMP280;49455;52.252;9.124;2023-05-14T13:16:41;99520.84;;;21.75
49154;BMP280;49455;52.252;9.124;2023-05-14T13:21:41;99518.72;;;21.49
49154;BMP280;49455;52.252;9.124;2023-05-14T13:26:41;99513.59;;;20.93
49154;BMP280;49455;52.252;9.124;2023-05-14T13:31:42;99511.69;;;20.46
49154;BMP280;49455;52.252;9.124;2023-05-14T13:36:42;99504.09;;;20.27
49154;BMP280;49455;52.252;9.124;2023-05-14T13:41:43;99510.38;;;20.16
49154;BMP280;49455;52.252;9.124;2023-05-14T13:46:43;99501.75;;;20.09
49154;BMP280;49455;52.252;9.124;2023-05-14T13:51:43;99506.25;;;19.97
49154;BMP280;49455;52.252;9.124;2023-05-14T13:56:53;99487.81;;;20.03
49154;BMP280;49455;52.252;9.124;2023-05-14T14:01:54;99479.81;;;20.13
49154;BMP280;49455;52.252;9.124;2023-05-14T14:06:55;99465.69;;;20.22
49154;BMP280;49455;52.252;9.124;2023-05-14T14:11:55;99465.59;;;20.28
49154;BMP280;49455;52.252;9.124;2023-05-14T14:16:56;99449.31;;;20.63
49154;BMP280;49455;52.252;9.124;2023-05-14T14:21:56;99455.97;;;21.74
49154;BMP280;49455;52.252;9.124;2023-05-14T14:26:57;99446.84;;;21.50
49154;BMP280;49455;52.252;9.124;2023-05-14T14:31:58;99450.00;;;20.74
49154;BMP280;49455;52.252;9.124;2023-05-14T14:36:58;99443.59;;;21.79
49154;BMP280;49455;52.252;9.124;2023-05-14T14:41:58;99437.28;;;22.62
49154;BMP280;49455;52.252;9.124;2023-05-14T14:46:59;99437.16;;;22.67
49154;BMP280;49455;52.252;9.124;2023-05-14T14:51:59;99438.81;;;21.97
49154;BMP280;49455;52.252;9.124;2023-05-14T14:56:59;99429.19;;;21.56
49154;BMP280;49455;52.252;9.124;2023-05-14T15:02:00;99423.16;;;21.51
49154;BMP280;49455;52.252;9.124;2023-05-14T15:07:01;99417.09;;;22.27
49154;BMP280;49455;52.252;9.124;2023-05-14T15:12:01;99421.19;;;22.38
49154;BMP280;49455;52.252;9.124;2023-05-14T15:17:02;99421.09;;;22.04
49154;BMP280;49455;52.252;9.124;2023-05-14T15:22:03;99416.97;;;21.92
49154;BMP280;49455;52.252;9.124;2023-05-14T15:27:03;99407.38;;;21.90
49154;BMP280;49455;52.252;9.124;2023-05-14T15:32:04;99409.78;;;22.02
49154;BMP280;49455;52.252;9.124;2023-05-14T15:37:04;99410.13;;;22.24
49154;BMP280;49455;52.252;9.124;2023-05-14T15:42:05;99389.88;;;21.89
49154;BMP280;49455;52.252;9.124;2023-05-14T15:47:05;99395.47;;;21.74
49154;BMP280;49455;52.252;9.124;2023-05-14T15:52:06;99387.44;;;20.95
49154;BMP280;49455;52.252;9.124;2023-05-14T15:57:06;99398.75;;;20.49
49154;BMP280;49455;52.252;9.124;2023-05-14T16:02:07;99391.63;;;20.05
49154;BMP280;49455;52.252;9.124;2023-05-14T16:07:07;99403.72;;;19.51
49154;BMP280;49455;52.252;9.124;2023-05-14T16:12:08;99397.81;;;19.33
49154;BMP280;49455;52.252;9.124;2023-05-14T16:17:08;99400.44;;;19.33
49154;BMP280;49455;52.252;9.124;2023-05-14T16:22:09;99402.97;;;19.40
49154;BMP280;49455;52.252;9.124;2023-05-14T16:27:10;99404.75;;;19.38
49154;BMP280;49455;52.252;9.124;2023-05-14T16:32:13;99409.69;;;18.90
49154;BMP280;49455;52.252;9.124;2023-05-14T16:37:15;99410.81;;;18.57
49154;BMP280;49455;52.252;9.124;2023-05-14T16:42:15;99410.91;;;18.47
49154;BMP280;49455;52.252;9.124;2023-05-14T16:47:18;99407.19;;;18.74
49154;BMP280;49455;52.252;9.124;2023-05-14T16:52:19;99397.69;;;18.63
49154;BMP280;49455;52.252;9.124;2023-05-14T16:57:19;99395.13;;;18.58
49154;BMP280;49455;52.252;9.124;2023-05-14T17:02:20;99389.91;;;18.57
49154;BMP280;49455;52.252;9.124;2023-05-14T17:07:20;99390.88;;;18.44
49154;BMP280;49455;52.252;9.124;2023-05-14T17:12:20;99399.69;;;18.34
49154;BMP280;49455;52.252;9.124;2023-05-14T17:17:21;99388.13;;;18.57
49154;BMP280;49455;52.252;9.124;2023-05-14T17:22:21;99385.63;;;18.50
49154;BMP280;49455;52.252;9.124;2023-05-14T17:27:22;99393.56;;;18.37
49154;BMP280;49455;52.252;9.124;2023-05-14T17:32:22;99389.28;;;18.27
49154;BMP280;49455;52.252;9.124;2023-05-14T17:37:23;99386.66;;;18.27
49154;BMP280;49455;52.252;9.124;2023-05-14T17:42:23;99390.34;;;17.98
49154;BMP280;49455;52.252;9.124;2023-05-14T17:47:24;99390.41;;;17.90
49154;BMP280;49455;52.252;9.124;2023-05-14T17:52:24;99386.13;;;17.78
49154;BMP280;49455;52.252;9.124;2023-05-14T17:57:25;99391.47;;;17.63
49154;BMP280;49455;52.252;9.124;2023-05-14T18:02:26;99390.63;;;17.49
49154;BMP280;49455;52.252;9.124;2023-05-14T18:07:26;99389.00;;;17.25
49154;BMP280;49455;52.252;9.124;2023-05-14T18:12:27;99385.56;;;17.11
49154;BMP280;49455;52.252;9.124;2023-05-14T18:17:27;99389.91;;;17.07
49154;BMP280;49455;52.252;9.124;2023-05-14T18:22:28;99405.63;;;16.94
49154;BMP280;49455;52.252;9.124;2023-05-14T18:27:28;99400.38;;;17.01
49154;BMP280;49455;52.252;9.124;2023-05-14T18:32:29;99417.78;;;16.95
49154;BMP280;49455;52.252;9.124;2023-05-14T18:37:29;99419.59;;;16.58
49154;BMP280;49455;52.252;9.124;2023-05-14T18:42:30;99424.81;;;16.40
49154;BMP280;49455;52.252;9.124;2023-05-14T18:47:31;99417.84;;;16.15
49154;BMP280;49455;52.252;9.124;2023-05-14T18:52:32;99421.34;;;16.16
49154;BMP280;49455;52.252;9.124;2023-05-14T18:57:32;99429.09;;;16.00
49154;BMP280;49455;52.252;9.124;2023-05-14T19:02:33;99422.94;;;15.73
49154;BMP280;49455;52.252;9.124;2023-05-14T19:07:33;99423.78;;;15.58
49154;BMP280;49455;52.252;9.124;2023-05-14T19:12:33;99420.25;;;15.40
49154;BMP280;49455;52.252;9.124;2023-05-14T19:17:34;99427.97;;;15.19
49154;BMP280;49455;52.252;9.124;2023-05-14T19:22:34;99426.94;;;14.95
49154;BMP280;49455;52.252;9.124;2023-05-14T19:27:36;99430.22;;;14.69
49154;BMP280;49455;52.252;9.124;2023-05-14T19:32:36;99422.34;;;14.59
49154;BMP280;49455;52.252;9.124;2023-05-14T19:37:36;99423.09;;;14.43
49154;BMP280;49455;52.252;9.124;2023-05-14T19:42:37;99416.03;;;14.24
49154;BMP280;49455;52.252;9.124;2023-05-14T19:47:37;99422.94;;;14.22
49154;BMP280;49455;52.252;9.124;2023-05-14T19:52:38;99421.09;;;14.08
49154;BMP280;49455;52.252;9.124;2023-05-14T19:57:38;99414.94;;;13.97
49154;BMP280;49455;52.252;9.124;2023-05-14T20:02:38;99417.34;;;13.81
49154;BMP280;49455;52.252;9.124;2023-05-14T20:07:39;99419.91;;;13.83
49154;BMP280;49455;52.252;9.124;2023-05-14T20:12:39;99418.84;;;13.64
49154;BMP280;49455;52.252;9.124;2023-05-14T20:17:40;99418.75;;;13.56
49154;BMP280;49455;52.252;9.124;2023-05-14T20:22:40;99416.16;;;13.54
49154;BMP280;49455;52.252;9.124;2023-05-14T20:27:40;99405.66;;;13.44
49154;BMP280;49455;52.252;9.124;2023-05-14T20:32:41;99415.13;;;13.39
49154;BMP280;49455;52.252;9.124;2023-05-14T20:37:41;99420.25;;;13.33
49154;BMP280;49455;52.252;9.124;2023-05-14T20:42:42;99420.09;;;13.24
49154;BMP280;49455;52.252;9.124;2023-05-14T20:47:42;99419.97;;;13.12
49154;BMP280;49455;52.252;9.124;2023-05-14T20:52:43;99416.44;;;13.07
49154;BMP280;49455;52.252;9.124;2023-05-14T20:57:43;99417.97;;;12.94
49154;BMP280;49455;52.252;9.124;2023-05-14T21:02:44;99417.75;;;12.77
49154;BMP280;49455;52.252;9.124;2023-05-14T21:07:44;99407.22;;;12.70
49154;BMP280;49455;52.252;9.124;2023-05-14T21:12:44;99403.66;;;12.59
49154;BMP280;49455;52.252;9.124;2023-05-14T21:17:45;99393.91;;;12.45
49154;BMP280;49455;52.252;9.124;2023-05-14T21:22:45;99398.03;;;12.33
49154;BMP280;49455;52.252;9.124;2023-05-14T21:27:46;99392.84;;;12.33
49154;BMP280;49455;52.252;9.124;2023-05-14T21:32:46;99390.97;;;12.23
49154;BMP280;49455;52.252;9.124;2023-05-14T21:37:46;99384.78;;;12.15
49154;BMP280;49455;52.252;9.124;2023-05-14T21:42:47;99385.66;;;12.14
49154;BMP280;49455;52.252;9.124;2023-05-14T21:47:47;99380.50;;;12.17
49154;BMP280;49455;52.252;9.124;2023-05-14T21:52:48;99380.59;;;12.23
49154;BMP280;49455;52.252;9.124;2023-05-14T21:57:48;99371.84;;;12.15
49154;BMP280;49455;52.252;9.124;2023-05-14T22:02:50;99379.75;;;12.22
49154;BMP280;49455;52.252;9.124;2023-05-14T22:07:50;99376.13;;;12.13
49154;BMP280;49455;52.252;9.124;2023-05-14T22:12:51;99374.28;;;12.06
49154;BMP280;49455;52.252;9.124;2023-05-14T22:17:51;99378.66;;;12.08
49154;BMP280;49455;52.252;9.124;2023-05-14T22:22:52;99369.88;;;12.02
49154;BMP280;49455;52.252;9.124;2023-05-14T22:27:52;99381.97;;;12.00
49154;BMP280;49455;52.252;9.124;2023-05-14T22:32:53;99381.97;;;12.02
49154;BMP280;49455;52.252;9.124;2023-05-14T22:37:53;99368.22;;;12.04
49154;BMP280;49455;52.252;9.124;2023-05-14T22:42:53;99368.16;;;12.01
49154;BMP280;49455;52.252;9.124;2023-05-14T22:47:54;99369.97;;;12.05
49154;BMP280;49455;52.252;9.124;2023-05-14T22:52:54;99354.25;;;11.96
49154;BMP280;49455;52.252;9.124;2023-05-14T22:57:55;99349.94;;;11.97
49154;BMP280;49455;52.252;9.124;2023-05-14T23:02:55;99348.81;;;11.78
49154;BMP280;49455;52.252;9.124;2023-05-14T23:07:55;99346.78;;;11.63
49154;BMP280;49455;52.252;9.124;2023-05-14T23:12:56;99339.94;;;11.65
49154;BMP280;49455;52.252;9.124;2023-05-14T23:17:56;99334.72;;;11.62
49154;BMP280;49455;52.252;9.124;2023-05-14T23:22:57;99332.69;;;11.46
49154;BMP280;49455;52.252;9.124;2023-05-14T23:27:57;99315.41;;;11.45
49154;BMP280;49455;52.252;9.124;2023-05-14T23:32:57;99303.97;;;11.34
49154;BMP280;49455;52.252;9.124;2023-05-14T23:37:58;99299.66;;;11.33
49154;BMP280;49455;52.252;9.124;2023-05-14T23:42:59;99298.78;;;11.34
49154;BMP280;49455;52.252;9.124;2023-05-14T23:48:00;99285.81;;;11.31
49154;BMP280;49455;52.252;9.124;2023-05-14T23:53:01;99282.59;;;11.41
49154;BMP280;49455;52.252;9.124;2023-05-14T23:58:01;99275.69;;;11.42
